Time;durP1;ratioP1;P1;durP2;ratioP2;P2;SDS_P1;SDS_P2;PMS_P1;PMS_P2;Temp;Humidity;BMP_temperature;BMP_pressure;BME280_temperature;BME280_humidity;BME280_pressure;Samples;Min_cycle;Max_cycle;Signal;HPM_P1;HPM_P2
2023/12/02 00:00:23;;;;;;;3.63;3.33;;;;;;;;;;5033828;28;20087;-80
2023/12/02 00:02:50;;;;;;;2.92;2.58;;;;;;;;;;5041359;28;20052;-81
2023/12/02 00:05:18;;;;;;;2.85;2.22;;;;;;;;;;5034864;28;20053;-80
2023/12/02 00:07:44;;;;;;;2.67;2.08;;;;;;;;;;5043395;28;20054;-81
2023/12/02 00:10:11;;;;;;;5.88;3.13;;;;;;;;;;5042766;28;20119;-81
2023/12/02 00:12:38;;;;;;;4.88;3.08;;;;;;;;;;5033122;28;20045;-81
2023/12/02 00:15:06;;;;;;;3.53;2.72;;;;;;;;;;5033521;28;20080;-81
2023/12/02 00:17:33;;;;;;;4.07;3.75;;;;;;;;;;5033165;28;20053;-81
2023/12/02 00:19:59;;;;;;;10.82;2.65;;;;;;;;;;5033258;28;20143;-80
2023/12/02 00:22:27;;;;;;;6.05;2.45;;;;;;;;;;5033228;28;20182;-81
2023/12/02 00:24:54;;;;;;;3.47;3.17;;;;;;;;;;5031907;28;20142;-80
2023/12/02 00:27:20;;;;;;;3.83;2.83;;;;;;;;;;5040852;28;20633;-81
2023/12/02 00:29:47;;;;;;;2.88;2.40;;;;;;;;;;5049449;28;20107;-79
2023/12/02 00:32:13;;;;;;;2.88;2.67;;;;;;;;;;5037329;28;20087;-78
2023/12/02 00:34:40;;;;;;;2.88;2.67;;;;;;;;;;5037300;28;20191;-77
2023/12/02 00:37:06;;;;;;;3.85;2.38;;;;;;;;;;5032502;28;20152;-78
2023/12/02 00:39:34;;;;;;;5.00;3.08;;;;;;;;;;5032361;28;20099;-78
2023/12/02 00:42:01;;;;;;;3.05;2.63;;;;;;;;;;5031852;28;20107;-79
2023/12/02 00:44:27;;;;;;;4.88;2.47;;;;;;;;;;5032428;28;20112;-79
2023/12/02 00:46:54;;;;;;;2.70;2.50;;;;;;;;;;5032494;28;20548;-78
2023/12/02 00:49:20;;;;;;;2.83;2.50;;;;;;;;;;5032642;28;20053;-77
2023/12/02 00:51:47;;;;;;;5.85;2.47;;;;;;;;;;5036594;28;20041;-77
2023/12/02 00:54:13;;;;;;;3.25;2.72;;;;;;;;;;5036773;28;20195;-77
2023/12/02 00:56:41;;;;;;;3.38;2.22;;;;;;;;;;5032733;28;20111;-77
2023/12/02 00:59:08;;;;;;;4.70;3.67;;;;;;;;;;5032599;28;20050;-77
2023/12/02 01:01:34;;;;;;;3.97;2.92;;;;;;;;;;5044894;28;20540;-77
2023/12/02 01:04:00;;;;;;;2.83;2.53;;;;;;;;;;5052070;28;20123;-77
2023/12/02 01:06:27;;;;;;;4.03;3.03;;;;;;;;;;5051917;28;20052;-77
2023/12/02 01:08:53;;;;;;;4.85;4.40;;;;;;;;;;5049028;28;20474;-76
2023/12/02 01:11:20;;;;;;;8.63;4.07;;;;;;;;;;5040889;28;20058;-76
2023/12/02 01:13:48;;;;;;;3.13;2.55;;;;;;;;;;5042359;28;20041;-76
2023/12/02 01:16:14;;;;;;;7.38;3.33;;;;;;;;;;5041850;28;20502;-77
2023/12/02 01:18:41;;;;;;;3.70;3.17;;;;;;;;;;5032066;28;20049;-77
2023/12/02 01:21:07;;;;;;;3.15;2.65;;;;;;;;;;5031911;28;20060;-77
2023/12/02 01:23:34;;;;;;;3.38;3.05;;;;;;;;;;5031759;28;20128;-77
2023/12/02 01:26:00;;;;;;;3.15;2.65;;;;;;;;;;5031902;28;20107;-77
2023/12/02 01:28:26;;;;;;;5.47;3.47;;;;;;;;;;5032061;28;20107;-77
2023/12/02 01:30:54;;;;;;;4.97;3.17;;;;;;;;;;5031426;28;20057;-77
2023/12/02 01:33:20;;;;;;;4.75;3.95;;;;;;;;;;5041538;28;20584;-76
2023/12/02 01:35:47;;;;;;;3.75;3.28;;;;;;;;;;5041024;28;20045;-77
2023/12/02 01:38:13;;;;;;;5.20;3.13;;;;;;;;;;5031849;28;20072;-77
2023/12/02 01:40:40;;;;;;;3.03;2.72;;;;;;;;;;5031869;28;20097;-77
2023/12/02 01:43:06;;;;;;;6.70;2.85;;;;;;;;;;5031993;28;20325;-77
2023/12/02 01:45:33;;;;;;;3.78;2.88;;;;;;;;;;5031878;28;20050;-76
2023/12/02 01:48:01;;;;;;;3.67;3.35;;;;;;;;;;5031502;28;20433;-76
2023/12/02 01:50:28;;;;;;;4.88;4.15;;;;;;;;;;5030646;28;20558;-76
2023/12/02 01:52:54;;;;;;;4.50;3.00;;;;;;;;;;5040199;28;20053;-76
2023/12/02 01:55:21;;;;;;;2.90;2.58;;;;;;;;;;5040169;28;20515;-77
2023/12/02 01:57:48;;;;;;;5.32;3.28;;;;;;;;;;5051497;28;20103;-78
2023/12/02 02:00:15;;;;;;;2.80;2.60;;;;;;;;;;5051722;28;20056;-77
2023/12/02 02:02:41;;;;;;;3.70;3.40;;;;;;;;;;5051241;28;20114;-77
2023/12/02 02:05:09;;;;;;;3.25;3.05;;;;;;;;;;5051418;28;20497;-77
2023/12/02 02:07:36;;;;;;;2.72;2.22;;;;;;;;;;5051354;28;20061;-77
2023/12/02 02:10:02;;;;;;;5.68;3.33;;;;;;;;;;5051306;28;20107;-77
2023/12/02 02:12:29;;;;;;;2.55;2.30;;;;;;;;;;5043726;28;20049;-77
2023/12/02 02:14:55;;;;;;;3.75;2.63;;;;;;;;;;5031904;28;20932;-77
2023/12/02 02:17:22;;;;;;;2.88;2.25;;;;;;;;;;5030938;28;20064;-78
2023/12/02 02:19:48;;;;;;;2.15;1.65;;;;;;;;;;5031244;28;20050;-78
2023/12/02 02:22:16;;;;;;;4.53;2.47;;;;;;;;;;5031228;28;20054;-79
2023/12/02 02:24:43;;;;;;;3.40;3.10;;;;;;;;;;5031181;28;20104;-78
2023/12/02 02:27:09;;;;;;;2.63;2.42;;;;;;;;;;5031356;28;20049;-78
2023/12/02 02:29:36;;;;;;;3.45;2.22;;;;;;;;;;5033417;28;20057;-77
2023/12/02 02:32:02;;;;;;;3.15;2.15;;;;;;;;;;5041374;28;20497;-77
2023/12/02 02:34:29;;;;;;;4.47;3.20;;;;;;;;;;5035126;28;20435;-77
2023/12/02 02:36:55;;;;;;;5.53;4.15;;;;;;;;;;5031054;28;20112;-77
2023/12/02 02:39:23;;;;;;;7.30;4.45;;;;;;;;;;5031086;28;20107;-77
2023/12/02 02:41:50;;;;;;;9.63;4.63;;;;;;;;;;5030771;28;20445;-77
2023/12/02 02:44:16;;;;;;;6.47;3.50;;;;;;;;;;5030762;28;20050;-77
2023/12/02 02:46:43;;;;;;;6.63;3.55;;;;;;;;;;5030833;28;20052;-77
2023/12/02 02:49:09;;;;;;;5.97;3.63;;;;;;;;;;5029707;28;20053;-76
2023/12/02 02:51:36;;;;;;;7.32;2.60;;;;;;;;;;5040967;28;20046;-77
2023/12/02 02:54:02;;;;;;;3.17;2.88;;;;;;;;;;5030896;28;20107;-77
2023/12/02 02:56:30;;;;;;;2.60;2.40;;;;;;;;;;5030971;28;20127;-77
2023/12/02 02:58:58;;;;;;;3.65;2.90;;;;;;;;;;5030494;28;20077;-77
2023/12/02 03:01:24;;;;;;;3.72;3.42;;;;;;;;;;5043033;28;20193;-77
2023/12/02 03:03:51;;;;;;;2.58;2.28;;;;;;;;;;5043174;28;20045;-77
2023/12/02 03:06:18;;;;;;;4.30;3.40;;;;;;;;;;5047888;28;20044;-77
2023/12/02 03:08:44;;;;;;;6.15;3.72;;;;;;;;;;5050965;28;20045;-77
2023/12/02 03:11:11;;;;;;;4.13;2.88;;;;;;;;;;5050739;28;20053;-77
2023/12/02 03:13:39;;;;;;;3.83;1.90;;;;;;;;;;5050651;28;20049;-77
2023/12/02 03:16:06;;;;;;;2.38;2.03;;;;;;;;;;5050963;28;20048;-77
2023/12/02 03:18:32;;;;;;;3.65;3.28;;;;;;;;;;5050359;28;20048;-78
2023/12/02 03:20:59;;;;;;;3.13;2.50;;;;;;;;;;5050436;28;20060;-78
2023/12/02 03:23:26;;;;;;;2.60;2.03;;;;;;;;;;5042581;28;20049;-78
2023/12/02 03:25:52;;;;;;;4.57;3.35;;;;;;;;;;5032490;28;20144;-78
2023/12/02 03:28:19;;;;;;;3.42;3.22;;;;;;;;;;5050509;28;20390;-78
2023/12/02 03:30:47;;;;;;;3.80;3.35;;;;;;;;;;5054235;28;20413;-77
2023/12/02 03:33:14;;;;;;;3.03;2.83;;;;;;;;;;5053597;28;20095;-77
2023/12/02 03:35:40;;;;;;;3.25;3.05;;;;;;;;;;5053329;28;20103;-77
2023/12/02 03:38:07;;;;;;;2.80;2.20;;;;;;;;;;5053676;28;20103;-77
2023/12/02 03:40:33;;;;;;;2.70;2.50;;;;;;;;;;5053776;28;20040;-78
2023/12/02 03:43:00;;;;;;;6.88;2.70;;;;;;;;;;5045831;28;20045;-77
2023/12/02 03:45:27;;;;;;;1.92;1.70;;;;;;;;;;5037430;28;20049;-78
2023/12/02 03:47:55;;;;;;;3.03;2.70;;;;;;;;;;5033724;28;20136;-77
2023/12/02 03:50:21;;;;;;;3.72;3.42;;;;;;;;;;5034022;28;20498;-77
2023/12/02 03:52:48;;;;;;;3.00;2.38;;;;;;;;;;5033899;28;20050;-77
2023/12/02 03:55:14;;;;;;;4.85;3.30;;;;;;;;;;5033809;28;20099;-77
2023/12/02 03:57:41;;;;;;;3.83;2.85;;;;;;;;;;5033697;28;20057;-78
2023/12/02 04:00:11;;;;;;;3.53;3.03;;;;;;;;;;5033976;28;20099;-77
2023/12/02 04:02:38;;;;;;;4.38;3.47;;;;;;;;;;5042224;28;20175;-77
2023/12/02 04:05:08;;;;;;;3.95;3.65;;;;;;;;;;5033464;28;20461;-77
2023/12/02 04:07:34;;;;;;;4.00;3.25;;;;;;;;;;5033644;28;20041;-77
2023/12/02 04:10:02;;;;;;;4.18;2.42;;;;;;;;;;5033511;28;20053;-77
2023/12/02 04:12:29;;;;;;;2.75;2.55;;;;;;;;;;5033547;28;20053;-77
2023/12/02 04:14:55;;;;;;;3.95;3.65;;;;;;;;;;5033437;28;20065;-77
2023/12/02 04:17:22;;;;;;;5.60;3.03;;;;;;;;;;5033235;28;20062;-77
2023/12/02 04:19:48;;;;;;;4.45;3.53;;;;;;;;;;5032774;28;20106;-80
2023/12/02 04:22:17;;;;;;;5.07;3.90;;;;;;;;;;5041617;28;20399;-79
2023/12/02 04:24:44;;;;;;;5.30;3.92;;;;;;;;;;5041955;28;20137;-79
2023/12/02 04:27:11;;;;;;;2.58;2.13;;;;;;;;;;5033398;28;20053;-79
2023/12/02 04:29:41;;;;;;;3.47;2.40;;;;;;;;;;5033128;28;20045;-77
2023/12/02 04:32:08;;;;;;;2.85;2.42;;;;;;;;;;5032744;28;20115;-77
2023/12/02 04:34:34;;;;;;;7.05;3.50;;;;;;;;;;5032445;28;20128;-76
2023/12/02 04:37:01;;;;;;;4.57;4.10;;;;;;;;;;5032893;28;20579;-77
2023/12/02 04:39:29;;;;;;;5.63;3.47;;;;;;;;;;5031857;28;20049;-75
2023/12/02 04:41:55;;;;;;;4.75;3.45;;;;;;;;;;5042279;28;20034;-76
2023/12/02 04:44:22;;;;;;;8.88;3.63;;;;;;;;;;5048492;28;20103;-76
2023/12/02 04:46:48;;;;;;;3.15;2.13;;;;;;;;;;5039025;28;20559;-78
2023/12/02 04:49:15;;;;;;;6.07;2.25;;;;;;;;;;5035719;28;20054;-77
2023/12/02 04:51:41;;;;;;;5.43;2.70;;;;;;;;;;5032752;28;20057;-77
2023/12/02 04:54:08;;;;;;;3.38;2.65;;;;;;;;;;5032541;28;20123;-77
2023/12/02 04:56:35;;;;;;;3.13;2.33;;;;;;;;;;5032818;28;20045;-77
2023/12/02 04:59:02;;;;;;;2.65;2.50;;;;;;;;;;5032578;28;20468;-77
2023/12/02 05:01:28;;;;;;;2.92;2.63;;;;;;;;;;5041313;28;20573;-79
2023/12/02 05:03:55;;;;;;;1.90;1.77;;;;;;;;;;5041967;28;20057;-77
2023/12/02 05:06:21;;;;;;;3.63;2.92;;;;;;;;;;5032530;28;20050;-78
2023/12/02 05:08:48;;;;;;;3.75;3.35;;;;;;;;;;5032252;28;20537;-78
2023/12/02 05:11:18;;;;;;;4.30;2.92;;;;;;;;;;5032641;28;20049;-77
2023/12/02 05:13:45;;;;;;;3.70;3.40;;;;;;;;;;5032267;28;20417;-79
2023/12/02 05:16:12;;;;;;;3.20;3.00;;;;;;;;;;5032266;28;20046;-80
2023/12/02 05:18:39;;;;;;;3.63;2.38;;;;;;;;;;5032268;28;20115;-79
2023/12/02 05:21:06;;;;;;;3.78;3.47;;;;;;;;;;5038883;28;20563;-79
2023/12/02 05:23:33;;;;;;;3.60;3.22;;;;;;;;;;5034349;28;20045;-79
2023/12/02 05:25:59;;;;;;;6.00;2.53;;;;;;;;;;5050914;28;20559;-79
2023/12/02 05:28:26;;;;;;;4.07;3.08;;;;;;;;;;5051990;28;20053;-80
2023/12/02 05:30:53;;;;;;;5.00;2.47;;;;;;;;;;5051922;28;20057;-80
2023/12/02 05:33:22;;;;;;;3.13;2.03;;;;;;;;;;5051770;28;20053;-79
2023/12/02 05:35:48;;;;;;;5.65;2.42;;;;;;;;;;5051832;28;20135;-79
2023/12/02 05:38:15;;;;;;;4.25;2.58;;;;;;;;;;5051737;28;20551;-80
2023/12/02 05:40:41;;;;;;;3.45;3.15;;;;;;;;;;5044027;28;20044;-80
2023/12/02 05:43:08;;;;;;;5.57;3.05;;;;;;;;;;5033549;28;20045;-79
2023/12/02 05:45:34;;;;;;;5.35;3.47;;;;;;;;;;5031702;28;20528;-79
2023/12/02 05:48:02;;;;;;;5.13;3.20;;;;;;;;;;5031599;28;20592;-79
2023/12/02 05:50:34;;;;;;;3.05;2.72;;;;;;;;;;5031588;28;20107;-80
2023/12/02 05:53:03;;;;;;;2.17;1.45;;;;;;;;;;5014396;28;20057;-79
2023/12/02 05:55:30;;;;;;;3.58;2.33;;;;;;;;;;5031667;28;20572;-79
2023/12/02 05:57:56;;;;;;;3.58;2.72;;;;;;;;;;5031809;28;20114;-78
2023/12/02 06:00:23;;;;;;;2.83;2.25;;;;;;;;;;5034598;28;20099;-78
2023/12/02 06:02:50;;;;;;;2.83;1.85;;;;;;;;;;5037814;28;20107;-78
2023/12/02 06:05:18;;;;;;;3.55;1.95;;;;;;;;;;5031584;28;20518;-78
2023/12/02 06:07:44;;;;;;;3.92;1.65;;;;;;;;;;5031260;28;20563;-77
2023/12/02 06:10:11;;;;;;;2.60;2.00;;;;;;;;;;5031617;28;20049;-77
2023/12/02 06:12:38;;;;;;;4.47;2.00;;;;;;;;;;5031202;28;20505;-78
2023/12/02 06:15:05;;;;;;;5.22;2.13;;;;;;;;;;5031501;28;20045;-77
2023/12/02 06:17:31;;;;;;;2.90;2.70;;;;;;;;;;5030821;28;20048;-76
2023/12/02 06:19:58;;;;;;;3.60;3.20;;;;;;;;;;5040078;28;20387;-77
2023/12/02 06:22:26;;;;;;;1.85;1.75;;;;;;;;;;5031306;28;20049;-77
2023/12/02 06:24:52;;;;;;;3.70;2.30;;;;;;;;;;5031189;28;20140;-77
2023/12/02 06:27:19;;;;;;;5.00;3.08;;;;;;;;;;5031351;28;20486;-77
2023/12/02 06:29:46;;;;;;;4.22;3.53;;;;;;;;;;5031256;28;20103;-77
2023/12/02 06:32:13;;;;;;;6.13;3.47;;;;;;;;;;5030910;28;20057;-77
2023/12/02 06:34:40;;;;;;;3.15;2.65;;;;;;;;;;5031364;28;20391;-77
2023/12/02 06:37:06;;;;;;;2.90;2.05;;;;;;;;;;5039971;28;20154;-76
2023/12/02 06:39:34;;;;;;;6.45;3.88;;;;;;;;;;5043876;28;20056;-77
2023/12/02 06:42:00;;;;;;;2.35;1.92;;;;;;;;;;5034335;28;20049;-77
2023/12/02 06:44:27;;;;;;;2.60;2.40;;;;;;;;;;5046691;28;20095;-77
2023/12/02 06:46:54;;;;;;;2.65;2.45;;;;;;;;;;5038624;28;20042;-77
2023/12/02 06:49:20;;;;;;;3.50;2.35;;;;;;;;;;5032425;28;20119;-77
2023/12/02 06:51:47;;;;;;;4.40;2.03;;;;;;;;;;5045783;28;20053;-77
2023/12/02 06:54:13;;;;;;;4.35;2.40;;;;;;;;;;5033348;28;20057;-77
2023/12/02 06:56:42;;;;;;;2.58;2.38;;;;;;;;;;5043720;28;20048;-77
2023/12/02 06:59:08;;;;;;;5.15;4.70;;;;;;;;;;5036875;28;20140;-78
2023/12/02 07:01:35;;;;;;;3.97;2.83;;;;;;;;;;5039073;28;20037;-77
2023/12/02 07:04:01;;;;;;;3.20;2.10;;;;;;;;;;5037889;28;20528;-77
2023/12/02 07:06:28;;;;;;;2.90;2.67;;;;;;;;;;5049243;28;20049;-78
2023/12/02 07:08:55;;;;;;;3.65;3.13;;;;;;;;;;5042459;28;20045;-78
2023/12/02 07:11:22;;;;;;;3.05;2.42;;;;;;;;;;5042522;28;20107;-77
2023/12/02 07:13:50;;;;;;;6.00;2.78;;;;;;;;;;5049632;28;20110;-77
2023/12/02 07:16:17;;;;;;;5.10;3.38;;;;;;;;;;5037641;28;20049;-77
2023/12/02 07:18:43;;;;;;;3.80;2.85;;;;;;;;;;5047511;28;20099;-78
2023/12/02 07:21:10;;;;;;;2.72;2.53;;;;;;;;;;5044112;28;20520;-77
2023/12/02 07:23:37;;;;;;;4.75;2.10;;;;;;;;;;5037188;28;20570;-77
2023/12/02 07:26:04;;;;;;;8.23;3.85;;;;;;;;;;5050397;28;20045;-77
2023/12/02 07:28:31;;;;;;;3.22;2.28;;;;;;;;;;5038643;28;20122;-77
2023/12/02 07:30:59;;;;;;;6.72;3.58;;;;;;;;;;5052212;28;20118;-77
2023/12/02 07:33:25;;;;;;;7.70;3.50;;;;;;;;;;5044447;28;20087;-77
2023/12/02 07:35:51;;;;;;;5.72;4.00;;;;;;;;;;5035587;28;20502;-78
2023/12/02 07:38:18;;;;;;;3.00;2.70;;;;;;;;;;5045045;28;20041;-77
2023/12/02 07:40:45;;;;;;;3.20;2.97;;;;;;;;;;5037036;28;20087;-78
2023/12/02 07:43:12;;;;;;;4.38;2.80;;;;;;;;;;5040762;28;20049;-79
2023/12/02 07:45:38;;;;;;;11.10;3.15;;;;;;;;;;5041062;28;20123;-79
2023/12/02 07:48:07;;;;;;;4.82;3.17;;;;;;;;;;5039246;28;20046;-79
2023/12/02 07:50:34;;;;;;;3.67;3.10;;;;;;;;;;5038165;28;20037;-79
2023/12/02 07:53:00;;;;;;;3.25;2.95;;;;;;;;;;5039834;28;20053;-78
2023/12/02 07:55:27;;;;;;;3.35;2.72;;;;;;;;;;5038986;28;20568;-79
2023/12/02 07:57:53;;;;;;;2.28;2.13;;;;;;;;;;5040946;28;20091;-77
2023/12/02 08:00:20;;;;;;;6.85;6.38;;;;;;;;;;5039180;28;20053;-77
2023/12/02 08:02:46;;;;;;;4.03;2.75;;;;;;;;;;5041013;28;20033;-77
2023/12/02 08:05:14;;;;;;;2.78;2.55;;;;;;;;;;5036130;28;20053;-77
2023/12/02 08:07:41;;;;;;;3.30;2.88;;;;;;;;;;5050267;28;20049;-77
2023/12/02 08:10:09;;;;;;;3.53;3.15;;;;;;;;;;5044369;28;20088;-77
2023/12/02 08:12:36;;;;;;;8.43;7.72;;;;;;;;;;5046876;28;20065;-77
2023/12/02 08:15:03;;;;;;;4.13;3.13;;;;;;;;;;5040859;28;20064;-76
2023/12/02 08:17:29;;;;;;;4.97;2.58;;;;;;;;;;5041438;28;20107;-77
2023/12/02 08:19:56;;;;;;;8.32;2.90;;;;;;;;;;5040382;28;20053;-76
2023/12/02 08:22:24;;;;;;;3.45;3.00;;;;;;;;;;5041483;28;20115;-77
2023/12/02 08:24:51;;;;;;;4.70;4.38;;;;;;;;;;5041687;28;20088;-76
2023/12/02 08:27:18;;;;;;;4.07;3.20;;;;;;;;;;5034648;28;20057;-77
2023/12/02 08:29:44;;;;;;;8.82;8.32;;;;;;;;;;5045643;28;20128;-77
2023/12/02 08:32:11;;;;;;;4.78;3.67;;;;;;;;;;5052088;28;20061;-77
2023/12/02 08:34:38;;;;;;;3.45;3.25;;;;;;;;;;5041734;28;20072;-77
2023/12/02 08:37:05;;;;;;;6.38;6.05;;;;;;;;;;5042747;28;20049;-78
2023/12/02 08:39:33;;;;;;;3.28;3.08;;;;;;;;;;5040344;28;20075;-77
2023/12/02 08:41:59;;;;;;;5.35;4.95;;;;;;;;;;5048014;28;20485;-78
2023/12/02 08:44:26;;;;;;;3.33;3.13;;;;;;;;;;5037189;28;20054;-77
2023/12/02 08:46:52;;;;;;;6.00;2.90;;;;;;;;;;5042877;28;20507;-78
2023/12/02 08:49:19;;;;;;;4.28;3.08;;;;;;;;;;5044768;28;20123;-78
2023/12/02 08:51:45;;;;;;;4.80;3.25;;;;;;;;;;5040092;28;20406;-78
2023/12/02 08:54:12;;;;;;;2.72;2.53;;;;;;;;;;5039584;28;20045;-78
2023/12/02 08:56:40;;;;;;;5.95;5.57;;;;;;;;;;5037741;28;20045;-77
2023/12/02 08:59:07;;;;;;;7.53;6.90;;;;;;;;;;5043787;28;20098;-77
2023/12/02 09:01:34;;;;;;;6.35;3.85;;;;;;;;;;5041095;28;20047;-78
2023/12/02 09:04:01;;;;;;;3.90;3.65;;;;;;;;;;5035715;28;20061;-75
2023/12/02 09:06:27;;;;;;;3.95;3.58;;;;;;;;;;5037190;28;20514;-77
2023/12/02 09:08:54;;;;;;;6.40;3.50;;;;;;;;;;5038975;28;20509;-78
2023/12/02 09:11:21;;;;;;;5.78;4.70;;;;;;;;;;5035563;28;20053;-78
2023/12/02 09:13:49;;;;;;;8.10;7.57;;;;;;;;;;5035312;28;20046;-78
2023/12/02 09:16:18;;;;;;;11.65;11.05;;;;;;;;;;5046610;28;20494;-77
2023/12/02 09:18:45;;;;;;;4.65;4.35;;;;;;;;;;5052305;28;20053;-78
2023/12/02 09:21:29;;;;;;;5.13;3.35;;;;;;;;;;5052377;28;20057;-78
2023/12/02 09:23:57;;;;;;;8.52;7.93;;;;;;;;;;5052355;28;20576;-78
2023/12/02 09:26:26;;;;;;;8.93;8.50;;;;;;;;;;5045768;28;20058;-77
2023/12/02 09:28:55;;;;;;;11.18;3.58;;;;;;;;;;5040618;28;20049;-77
2023/12/02 09:31:21;;;;;;;4.82;4.53;;;;;;;;;;5052299;28;20079;-78
2023/12/02 09:33:55;;;;;;;4.10;3.67;;;;;;;;;;5052110;28;20497;-78
2023/12/02 09:36:27;;;;;;;9.15;8.63;;;;;;;;;;5051623;28;20075;-78
2023/12/02 09:38:54;;;;;;;7.28;6.65;;;;;;;;;;5052029;28;20452;-77
2023/12/02 09:41:33;;;;;;;6.95;2.97;;;;;;;;;;5052030;28;20140;-78
2023/12/02 09:44:22;;;;;;;4.68;4.38;;;;;;;;;;5051173;28;20049;-78
2023/12/02 09:46:54;;;;;;;8.77;8.18;;;;;;;;;;5032140;28;20045;-76
2023/12/02 09:49:30;;;;;;;12.30;11.68;;;;;;;;;;5040088;28;20049;-77
2023/12/02 09:52:06;;;;;;;4.10;3.80;;;;;;;;;;5033873;28;20076;-77
2023/12/02 09:54:37;;;;;;;7.57;7.18;;;;;;;;;;5047948;28;20049;-77
2023/12/02 09:57:09;;;;;;;8.25;7.82;;;;;;;;;;5035840;28;20045;-78
2023/12/02 09:59:40;;;;;;;3.63;3.28;;;;;;;;;;5042536;28;20049;-78
2023/12/02 10:02:15;;;;;;;5.28;4.88;;;;;;;;;;5042308;28;20049;-77
2023/12/02 10:04:47;;;;;;;5.07;4.63;;;;;;;;;;5038757;28;20057;-77
2023/12/02 10:07:20;;;;;;;8.57;8.18;;;;;;;;;;5039094;28;20555;-77
2023/12/02 10:09:53;;;;;;;6.50;3.13;;;;;;;;;;5040208;28;20046;-77
2023/12/02 10:12:33;;;;;;;3.75;3.45;;;;;;;;;;5037742;28;20132;-77
2023/12/02 10:15:18;;;;;;;7.68;7.10;;;;;;;;;;5041427;28;20543;-78
2023/12/02 10:17:50;;;;;;;5.05;4.65;;;;;;;;;;5039407;28;20110;-77
2023/12/02 10:20:16;;;;;;;4.18;3.97;;;;;;;;;;5033675;28;20080;-77
2023/12/02 10:22:44;;;;;;;3.72;3.42;;;;;;;;;;5047425;28;20052;-77
2023/12/02 10:25:14;;;;;;;8.82;8.27;;;;;;;;;;5036471;28;20160;-77
2023/12/02 10:27:41;;;;;;;6.65;6.15;;;;;;;;;;5041236;28;20049;-77
2023/12/02 10:30:10;;;;;;;9.60;9.10;;;;;;;;;;5044429;28;20049;-77
2023/12/02 10:32:42;;;;;;;3.15;2.78;;;;;;;;;;5034284;28;20045;-77
2023/12/02 10:35:12;;;;;;;3.70;3.40;;;;;;;;;;5045216;28;20050;-78
2023/12/02 10:37:40;;;;;;;7.28;6.95;;;;;;;;;;5042350;28;20045;-77
2023/12/02 10:40:08;;;;;;;7.97;7.55;;;;;;;;;;5041611;28;20099;-77
2023/12/02 10:42:38;;;;;;;3.03;2.83;;;;;;;;;;5051307;28;20110;-76
2023/12/02 10:45:07;;;;;;;4.10;3.53;;;;;;;;;;5039783;28;20044;-77
2023/12/02 10:47:33;;;;;;;9.48;9.00;;;;;;;;;;5045944;28;20049;-76
2023/12/02 10:50:01;;;;;;;3.45;3.15;;;;;;;;;;5046914;28;20110;-76
2023/12/02 10:52:29;;;;;;;10.60;9.77;;;;;;;;;;5038832;28;20111;-76
2023/12/02 10:54:58;;;;;;;4.53;3.22;;;;;;;;;;5040931;28;20045;-77
2023/12/02 10:57:26;;;;;;;5.50;5.00;;;;;;;;;;5043721;28;20510;-76
2023/12/02 11:00:00;;;;;;;10.63;9.93;;;;;;;;;;5051515;28;20115;-78
2023/12/02 11:02:30;;;;;;;9.93;9.43;;;;;;;;;;5053834;28;20056;-77
2023/12/02 11:05:04;;;;;;;11.63;11.13;;;;;;;;;;5054502;28;20049;-77
2023/12/02 11:07:32;;;;;;;10.50;9.95;;;;;;;;;;5054431;28;20098;-77
2023/12/02 11:10:01;;;;;;;9.65;8.82;;;;;;;;;;5054760;28;20118;-77
2023/12/02 11:12:32;;;;;;;8.07;7.68;;;;;;;;;;5054660;28;20106;-77
2023/12/02 11:15:03;;;;;;;4.32;4.03;;;;;;;;;;5044672;28;20095;-72
2023/12/02 11:17:36;;;;;;;6.30;5.97;;;;;;;;;;5042221;28;20409;-78
2023/12/02 11:20:08;;;;;;;6.15;5.85;;;;;;;;;;5034389;28;20395;-78
2023/12/02 11:22:55;;;;;;;4.07;3.60;;;;;;;;;;5034060;28;20502;-78
2023/12/02 11:25:32;;;;;;;13.00;12.40;;;;;;;;;;5009049;28;20111;-77
2023/12/02 11:28:03;;;;;;;3.58;3.38;;;;;;;;;;5034283;28;20045;-78
2023/12/02 11:30:45;;;;;;;8.23;7.82;;;;;;;;;;5034541;28;20059;-78
2023/12/02 11:33:16;;;;;;;4.82;4.07;;;;;;;;;;5031605;28;20119;-78
2023/12/02 11:35:48;;;;;;;13.65;12.98;;;;;;;;;;5032548;28;20049;-77
2023/12/02 11:38:17;;;;;;;11.65;10.68;;;;;;;;;;5034260;28;20037;-77
2023/12/02 11:40:52;;;;;;;15.75;15.05;;;;;;;;;;5050000;28;20124;-76
2023/12/02 11:43:23;;;;;;;4.47;3.28;;;;;;;;;;5041790;28;20052;-77
2023/12/02 11:45:54;;;;;;;9.52;9.07;;;;;;;;;;5049667;28;20048;-77
2023/12/02 11:48:22;;;;;;;3.35;3.15;;;;;;;;;;5036905;28;20077;-75
2023/12/02 11:51:08;;;;;;;9.48;8.98;;;;;;;;;;5049315;28;20346;-77
2023/12/02 11:53:42;;;;;;;5.20;4.30;;;;;;;;;;5039386;28;20046;-76
2023/12/02 11:56:11;;;;;;;5.68;3.67;;;;;;;;;;5045035;28;20406;-77
2023/12/02 11:58:43;;;;;;;6.15;5.70;;;;;;;;;;5036321;28;20454;-77
2023/12/02 12:01:13;;;;;;;3.90;3.60;;;;;;;;;;5038074;28;20502;-77
2023/12/02 12:03:46;;;;;;;10.23;9.50;;;;;;;;;;5046338;28;20052;-76
2023/12/02 12:06:19;;;;;;;4.03;3.67;;;;;;;;;;5037842;28;20052;-77
2023/12/02 12:08:54;;;;;;;4.90;4.50;;;;;;;;;;5074040;22;20466;-76
2023/12/02 12:11:22;;;;;;;8.65;8.25;;;;;;;;;;5026367;28;20046;-77
2023/12/02 12:13:50;;;;;;;4.90;4.35;;;;;;;;;;5018970;28;20067;-76
2023/12/02 12:16:16;;;;;;;2.50;2.40;;;;;;;;;;5013848;28;20065;-77
2023/12/02 12:18:43;;;;;;;3.25;2.90;;;;;;;;;;5033045;28;20126;-77
2023/12/02 12:21:10;;;;;;;9.05;8.65;;;;;;;;;;5026355;28;20619;-76
2023/12/02 12:23:36;;;;;;;4.07;3.38;;;;;;;;;;5024214;28;20049;-77
2023/12/02 12:26:03;;;;;;;6.65;2.97;;;;;;;;;;5033336;28;20050;-77
2023/12/02 12:28:35;;;;;;;6.78;6.25;;;;;;;;;;5021213;28;20136;-76
2023/12/02 12:31:01;;;;;;;2.72;2.53;;;;;;;;;;5019102;28;20104;-77
2023/12/02 12:33:29;;;;;;;10.48;9.88;;;;;;;;;;5023426;28;20046;-77
2023/12/02 12:35:56;;;;;;;8.90;8.30;;;;;;;;;;5025602;28;20061;-77
2023/12/02 12:38:22;;;;;;;8.30;7.90;;;;;;;;;;5032473;28;20042;-77
2023/12/02 12:40:50;;;;;;;7.28;6.78;;;;;;;;;;5017367;28;20049;-76
2023/12/02 12:43:18;;;;;;;7.57;7.03;;;;;;;;;;5025065;28;20050;-77
2023/12/02 12:45:49;;;;;;;9.15;8.50;;;;;;;;;;5024893;28;20045;-76
2023/12/02 12:48:16;;;;;;;8.27;7.68;;;;;;;;;;5016810;28;20491;-76
2023/12/02 12:50:44;;;;;;;12.73;11.85;;;;;;;;;;5029319;28;20056;-77
2023/12/02 12:53:11;;;;;;;3.42;3.22;;;;;;;;;;5023776;28;20060;-77
2023/12/02 12:55:38;;;;;;;11.65;10.85;;;;;;;;;;5022705;28;20050;-76
2023/12/02 12:58:07;;;;;;;9.10;8.60;;;;;;;;;;5014857;28;20049;-76
2023/12/02 13:00:34;;;;;;;9.70;9.10;;;;;;;;;;5024686;28;20080;-77
2023/12/02 13:03:15;;;;;;;10.82;10.15;;;;;;;;;;5004310;28;20057;-76
2023/12/02 13:05:43;;;;;;;9.10;8.60;;;;;;;;;;5008578;28;20057;-77
2023/12/02 13:08:15;;;;;;;3.58;2.95;;;;;;;;;;5012099;28;20053;-77
2023/12/02 13:10:42;;;;;;;4.82;2.63;;;;;;;;;;5031565;28;20045;-77
2023/12/02 13:13:10;;;;;;;9.13;8.27;;;;;;;;;;5031147;28;20095;-77
2023/12/02 13:15:40;;;;;;;8.93;7.30;;;;;;;;;;5022061;28;20192;-77
2023/12/02 13:18:07;;;;;;;7.22;6.82;;;;;;;;;;5012116;28;20064;-78
2023/12/02 13:20:34;;;;;;;3.38;3.05;;;;;;;;;;5027334;28;20041;-77
2023/12/02 13:23:04;;;;;;;3.45;3.25;;;;;;;;;;5030001;28;20049;-77
2023/12/02 13:25:33;;;;;;;4.28;3.38;;;;;;;;;;5025497;28;20159;-76
2023/12/02 13:28:06;;;;;;;7.30;6.90;;;;;;;;;;5030279;28;20068;-77
2023/12/02 13:30:36;;;;;;;7.50;7.00;;;;;;;;;;5032102;28;20053;-76
2023/12/02 13:33:07;;;;;;;8.25;7.60;;;;;;;;;;5026123;28;20100;-76
2023/12/02 13:35:36;;;;;;;5.43;4.95;;;;;;;;;;5013529;28;20052;-76
2023/12/02 13:38:14;;;;;;;5.43;3.97;;;;;;;;;;5025088;28;20556;-76
2023/12/02 13:40:47;;;;;;;9.15;8.55;;;;;;;;;;5028526;28;20088;-76
2023/12/02 13:43:15;;;;;;;6.85;6.40;;;;;;;;;;5019344;28;20045;-74
2023/12/02 13:45:47;;;;;;;6.28;4.18;;;;;;;;;;5030141;28;20099;-76
2023/12/02 13:48:16;;;;;;;13.20;12.32;;;;;;;;;;5016177;28;20128;-76
2023/12/02 13:50:48;;;;;;;11.57;10.90;;;;;;;;;;5027307;28;20494;-76
2023/12/02 13:53:24;;;;;;;4.50;4.22;;;;;;;;;;5019202;28;20092;-76
2023/12/02 13:55:57;;;;;;;5.80;5.30;;;;;;;;;;5018981;28;20046;-75
2023/12/02 13:58:29;;;;;;;4.25;3.67;;;;;;;;;;5027905;28;20053;-75
2023/12/02 14:01:02;;;;;;;13.00;12.30;;;;;;;;;;5014068;28;20050;-76
2023/12/02 14:03:43;;;;;;;8.00;7.45;;;;;;;;;;5016195;28;20038;-76
2023/12/02 14:06:13;;;;;;;5.45;4.63;;;;;;;;;;5026519;28;20580;-75
2023/12/02 14:08:41;;;;;;;9.80;9.20;;;;;;;;;;5014589;28;20061;-76
2023/12/02 14:11:13;;;;;;;4.60;4.22;;;;;;;;;;5024635;28;20045;-76
2023/12/02 14:13:45;;;;;;;4.78;4.47;;;;;;;;;;5022276;28;20453;-76
2023/12/02 14:16:29;;;;;;;4.00;3.70;;;;;;;;;;5031156;28;20553;-76
2023/12/02 14:19:13;;;;;;;8.10;7.70;;;;;;;;;;5028702;28;20075;-78
2023/12/02 14:21:48;;;;;;;4.35;3.95;;;;;;;;;;5020086;28;20061;-76
2023/12/02 14:24:24;;;;;;;4.47;4.28;;;;;;;;;;5026943;28;20068;-76
2023/12/02 14:27:02;;;;;;;8.23;7.80;;;;;;;;;;5011212;28;20088;-76
2023/12/02 14:29:37;;;;;;;3.78;3.40;;;;;;;;;;5019783;28;20111;-75
2023/12/02 14:32:14;;;;;;;9.38;8.68;;;;;;;;;;5025451;28;20053;-76
2023/12/02 14:35:01;;;;;;;10.70;9.98;;;;;;;;;;5018703;28;20046;-75
2023/12/02 14:37:58;;;;;;;4.43;4.03;;;;;;;;;;5021847;28;20049;-76
2023/12/02 14:40:33;;;;;;;9.73;9.13;;;;;;;;;;4954211;28;20051;-75
2023/12/02 14:43:05;;;;;;;11.60;11.00;;;;;;;;;;4964310;28;20113;-75
2023/12/02 14:45:32;;;;;;;10.60;9.93;;;;;;;;;;4959982;28;20487;-76
2023/12/02 14:48:03;;;;;;;5.75;4.28;;;;;;;;;;4956763;28;20055;-76
2023/12/02 14:50:29;;;;;;;;;;;;;;;;;;4966353;28;20134;-76